createdAt,value
2023-02-22T00:01:50.792Z,42.22
2023-02-22T00:04:21.002Z,43.05
2023-02-22T00:06:48.906Z,40.28
2023-02-22T00:09:20.346Z,47.38
2023-02-22T00:11:48.688Z,41.55
2023-02-22T00:14:20.180Z,41.38
2023-02-22T00:16:47.284Z,38.30
2023-02-22T00:19:14.001Z,46.20
2023-02-22T00:21:40.569Z,41.22
2023-02-22T00:24:23.059Z,44.03
2023-02-22T00:26:55.450Z,47.63
2023-02-22T00:29:23.293Z,42.53
2023-02-22T00:31:49.917Z,45.22
2023-02-22T00:34:16.708Z,36.47
2023-02-22T00:36:50.108Z,48.60
2023-02-22T00:39:16.936Z,50.42
2023-02-22T00:41:43.961Z,39.22
2023-02-22T00:44:11.150Z,40.42
2023-02-22T00:46:39.177Z,35.17
2023-02-22T00:49:05.766Z,44.13
2023-02-22T00:51:33.777Z,35.13
2023-02-22T00:54:00.499Z,38.53
2023-02-22T00:56:27.087Z,43.00
2023-02-22T00:58:53.697Z,33.25
2023-02-22T01:01:20.666Z,42.20
2023-02-22T01:03:47.513Z,25.10
2023-02-22T01:06:14.208Z,49.92
2023-02-22T01:08:44.951Z,33.92
2023-02-22T01:11:12.716Z,31.27
2023-02-22T01:13:40.417Z,42.65
2023-02-22T01:16:10.345Z,45.55
2023-02-22T01:18:37.582Z,51.03
2023-02-22T01:21:04.896Z,67.95
2023-02-22T01:23:31.816Z,62.55
2023-02-22T01:25:58.856Z,66.35
2023-02-22T01:28:25.550Z,68.72
2023-02-22T01:30:52.549Z,47.03
2023-02-22T01:33:19.340Z,37.28
2023-02-22T01:35:46.832Z,45.47
2023-02-22T01:38:14.354Z,53.38
2023-02-22T01:40:43.400Z,29.85
2023-02-22T01:43:29.942Z,34.67
2023-02-22T01:46:18.995Z,41.47
2023-02-22T01:48:49.798Z,46.97
2023-02-22T01:51:23.515Z,40.53
2023-02-22T01:54:04.497Z,37.38
2023-02-22T01:56:36.740Z,53.05
2023-02-22T01:59:07.625Z,46.88
2023-02-22T02:01:37.980Z,42.40
2023-02-22T02:04:11.036Z,41.50
2023-02-22T02:06:38.558Z,41.13
2023-02-22T02:09:30.865Z,41.88
2023-02-22T02:12:02.689Z,39.20
2023-02-22T02:14:31.881Z,31.13
2023-02-22T02:17:01.305Z,35.13
2023-02-22T02:19:51.893Z,34.28
2023-02-22T02:22:46.539Z,28.88
2023-02-22T02:25:41.006Z,30.30
2023-02-22T02:28:26.439Z,23.33
2023-02-22T02:31:30.244Z,24.05
2023-02-22T02:34:05.208Z,23.75
2023-02-22T02:39:25.625Z,16.15
2023-02-22T02:41:52.335Z,23.67
2023-02-22T02:44:31.373Z,26.00
2023-02-22T02:47:01.121Z,23.73
2023-02-22T02:49:56.797Z,13.75
2023-02-22T02:52:25.050Z,20.58
2023-02-22T02:54:53.504Z,21.48
2023-02-22T02:57:20.201Z,18.13
2023-02-22T02:59:46.911Z,16.92
2023-02-22T03:02:33.997Z,20.08
2023-02-22T03:05:15.777Z,21.50
2023-02-22T03:07:55.590Z,23.30
2023-02-22T03:10:26.485Z,18.23
2023-02-22T03:12:55.995Z,24.02
2023-02-22T03:15:32.372Z,20.88
2023-02-22T03:18:07.352Z,20.75
2023-02-22T03:20:43.153Z,18.50
2023-02-22T03:23:32.523Z,18.67
2023-02-22T03:26:04.550Z,18.88
2023-02-22T03:28:35.044Z,24.45
2023-02-22T03:31:07.217Z,16.77
2023-02-22T03:33:45.458Z,13.93
2023-02-22T03:36:18.178Z,23.20
2023-02-22T03:38:46.132Z,24.95
2023-02-22T03:41:18.809Z,19.02
2023-02-22T03:43:54.517Z,18.02
2023-02-22T03:46:22.605Z,26.63
2023-02-22T03:49:25.216Z,18.55
2023-02-22T03:51:53.689Z,14.27
2023-02-22T03:54:21.304Z,17.17
2023-02-22T03:56:54.241Z,14.43
2023-02-22T03:59:27.559Z,15.23
2023-02-22T04:01:55.468Z,14.80
2023-02-22T04:04:23.799Z,14.90
2023-02-22T04:06:52.309Z,16.33
2023-02-22T04:09:19.262Z,14.38
2023-02-22T04:11:46.035Z,15.55
2023-02-22T04:14:13.156Z,12.82
2023-02-22T04:16:39.892Z,12.30
2023-02-22T04:19:09.023Z,10.75
2023-02-22T04:21:37.643Z,15.82
2023-02-22T04:24:05.829Z,13.30
2023-02-22T04:26:32.478Z,15.27
2023-02-22T04:29:01.578Z,15.00
2023-02-22T04:31:34.699Z,12.52
2023-02-22T04:34:03.325Z,15.38
2023-02-22T04:36:33.585Z,12.15
2023-02-22T04:39:01.359Z,12.63
2023-02-22T04:41:31.374Z,12.90
2023-02-22T04:43:57.965Z,14.20
2023-02-22T04:46:26.392Z,12.18
2023-02-22T04:48:54.215Z,12.65
2023-02-22T04:51:24.384Z,12.85
2023-02-22T04:53:58.658Z,12.40
2023-02-22T04:56:25.315Z,9.77
2023-02-22T04:58:52.000Z,11.43
2023-02-22T05:01:19.036Z,11.18
2023-02-22T05:03:46.848Z,11.68
2023-02-22T05:06:13.498Z,10.15
2023-02-22T05:08:40.310Z,12.05
2023-02-22T05:11:06.867Z,8.90
2023-02-22T05:13:33.564Z,8.07
2023-02-22T05:16:00.243Z,9.75
2023-02-22T05:18:27.182Z,16.63
2023-02-22T05:20:53.813Z,8.25
2023-02-22T05:23:20.492Z,10.57
2023-02-22T05:25:47.095Z,13.85
2023-02-22T05:28:15.337Z,9.27
2023-02-22T05:30:42.271Z,10.90
2023-02-22T05:33:09.800Z,12.10
2023-02-22T05:35:37.103Z,8.85
2023-02-22T05:38:04.612Z,12.50
2023-02-22T05:40:32.464Z,12.88
2023-02-22T05:42:59.829Z,11.13
2023-02-22T05:45:27.922Z,13.65
2023-02-22T05:47:58.218Z,11.55
2023-02-22T05:50:25.620Z,10.85
2023-02-22T05:52:53.598Z,11.88
2023-02-22T05:55:22.709Z,14.02
2023-02-22T05:57:50.030Z,13.43
2023-02-22T06:00:19.783Z,10.80
2023-02-22T06:02:46.862Z,15.35
2023-02-22T06:05:13.823Z,14.70
2023-02-22T06:07:40.486Z,14.25
2023-02-22T06:10:07.197Z,13.43
2023-02-22T06:12:33.777Z,12.45
2023-02-22T06:15:00.360Z,11.95
2023-02-22T06:17:26.930Z,10.57
2023-02-22T06:19:53.526Z,9.38
2023-02-22T06:22:20.089Z,10.35
2023-02-22T06:24:46.650Z,13.48
2023-02-22T06:27:13.306Z,10.30
2023-02-22T06:29:44.025Z,10.82
2023-02-22T06:32:11.070Z,8.57
2023-02-22T06:34:37.593Z,11.32
2023-02-22T06:37:04.174Z,9.27
2023-02-22T06:39:30.764Z,9.90
2023-02-22T06:41:57.819Z,12.68
2023-02-22T06:44:24.432Z,12.48
2023-02-22T06:46:51.766Z,12.77
2023-02-22T06:49:20.264Z,11.63
2023-02-22T06:51:47.571Z,10.13
2023-02-22T06:54:14.732Z,9.70
2023-02-22T06:56:41.412Z,10.10
2023-02-22T06:59:08.441Z,10.93
2023-02-22T07:01:35.360Z,6.97
2023-02-22T07:04:02.417Z,10.85
2023-02-22T07:06:29.046Z,10.68
2023-02-22T07:08:55.661Z,14.13
2023-02-22T07:11:22.488Z,10.93
2023-02-22T07:13:49.058Z,11.52
2023-02-22T07:16:15.827Z,10.05
2023-02-22T07:18:42.385Z,12.68
2023-02-22T07:21:09.033Z,10.70
2023-02-22T07:23:35.701Z,12.18
2023-02-22T07:26:03.386Z,14.00
2023-02-22T07:28:30.033Z,14.90
2023-02-22T07:30:56.675Z,14.10
2023-02-22T07:33:23.330Z,11.52
2023-02-22T07:35:50.952Z,15.10
2023-02-22T07:38:19.510Z,15.02
2023-02-22T07:40:46.384Z,14.73
2023-02-22T07:43:29.396Z,14.93
2023-02-22T07:46:00.448Z,14.98
2023-02-22T07:48:29.434Z,14.82
2023-02-22T07:50:56.588Z,18.67
2023-02-22T07:53:30.418Z,15.43
2023-02-22T07:56:02.604Z,12.25
2023-02-22T07:58:31.256Z,10.32
2023-02-22T08:00:58.793Z,11.52
2023-02-22T08:03:26.976Z,12.73
2023-02-22T08:05:56.157Z,12.60
2023-02-22T08:08:23.382Z,11.32
2023-02-22T08:10:51.683Z,14.00
2023-02-22T08:13:19.399Z,12.38
2023-02-22T08:15:47.065Z,14.93
2023-02-22T08:18:16.896Z,13.20
2023-02-22T08:20:45.537Z,10.52
2023-02-22T08:23:13.903Z,15.88
2023-02-22T08:25:41.076Z,17.52
2023-02-22T08:28:11.292Z,14.07
2023-02-22T08:30:40.893Z,14.38
2023-02-22T08:33:08.212Z,15.43
2023-02-22T08:35:34.851Z,14.38
2023-02-22T08:38:05.033Z,13.35
2023-02-22T08:40:34.704Z,16.52
2023-02-22T08:43:04.619Z,15.10
2023-02-22T08:45:31.260Z,19.05
2023-02-22T08:47:59.316Z,15.07
2023-02-22T08:50:29.468Z,16.15
2023-02-22T08:52:59.244Z,22.35
2023-02-22T08:55:28.882Z,13.63
2023-02-22T08:57:55.647Z,23.38
2023-02-22T09:00:26.165Z,16.75
2023-02-22T09:02:53.177Z,16.10
2023-02-22T09:05:20.163Z,17.10
2023-02-22T09:07:47.684Z,11.80
2023-02-22T09:10:27.534Z,15.00
2023-02-22T09:12:58.073Z,19.70
2023-02-22T09:15:25.975Z,17.85
2023-02-22T09:17:54.092Z,14.80
2023-02-22T09:20:23.371Z,15.48
2023-02-22T09:22:50.291Z,12.98
2023-02-22T09:25:18.199Z,16.02
2023-02-22T09:27:48.971Z,17.33
2023-02-22T09:30:19.118Z,14.68
2023-02-22T09:32:46.318Z,12.77
2023-02-22T09:35:13.161Z,16.48
2023-02-22T09:37:39.758Z,15.80
2023-02-22T09:40:10.100Z,15.02
2023-02-22T09:42:49.003Z,13.32
2023-02-22T09:45:23.723Z,14.50
2023-02-22T09:48:11.708Z,17.88
2023-02-22T09:50:51.345Z,16.17
2023-02-22T09:53:42.121Z,12.13
2023-02-22T09:56:14.871Z,12.05
2023-02-22T09:58:47.674Z,12.52
2023-02-22T10:01:39.825Z,14.15
2023-02-22T10:04:24.406Z,17.63
2023-02-22T10:07:28.888Z,13.90
2023-02-22T10:09:57.954Z,11.38
2023-02-22T10:12:42.217Z,15.43
2023-02-22T10:15:27.444Z,13.70
2023-02-22T10:18:39.046Z,12.43
2023-02-22T10:21:25.606Z,12.77
2023-02-22T10:24:12.779Z,15.02
2023-02-22T10:26:44.951Z,17.35
2023-02-22T10:29:11.509Z,12.18
2023-02-22T10:31:45.812Z,15.02
2023-02-22T10:34:23.333Z,9.70
2023-02-22T10:37:14.105Z,14.68
2023-02-22T10:39:44.514Z,10.07
2023-02-22T10:42:11.245Z,11.70
2023-02-22T10:44:39.226Z,12.20
2023-02-22T10:47:11.864Z,14.80
2023-02-22T10:49:46.528Z,14.15
2023-02-22T10:52:20.477Z,11.63
2023-02-22T10:54:50.356Z,13.63
2023-02-22T10:57:21.028Z,15.15
2023-02-22T10:59:52.039Z,17.02
2023-02-22T11:02:27.640Z,16.52
2023-02-22T11:04:57.155Z,20.30
2023-02-22T11:07:36.858Z,12.35
2023-02-22T11:10:09.224Z,14.95
2023-02-22T11:12:38.688Z,12.10
2023-02-22T11:15:18.797Z,13.82
2023-02-22T11:17:49.599Z,14.45
2023-02-22T11:20:25.453Z,12.32
2023-02-22T11:22:57.961Z,12.38
2023-02-22T11:25:28.545Z,15.43
2023-02-22T11:27:55.921Z,17.38
2023-02-22T11:30:22.780Z,12.63
2023-02-22T11:33:11.880Z,22.55
2023-02-22T11:35:59.987Z,16.92
2023-02-22T11:38:36.725Z,13.43
2023-02-22T11:41:17.385Z,18.92
2023-02-22T11:43:46.937Z,16.20
2023-02-22T11:46:18.638Z,14.57
2023-02-22T11:49:04.501Z,14.00
2023-02-22T11:51:53.043Z,12.35
2023-02-22T11:54:57.439Z,12.25
2023-02-22T11:57:41.061Z,14.27
2023-02-22T12:00:28.749Z,17.55
2023-02-22T12:03:14.298Z,11.48
2023-02-22T12:06:14.212Z,13.93
2023-02-22T12:09:02.661Z,15.02
2023-02-22T12:11:50.914Z,13.60
2023-02-22T12:14:31.991Z,13.05
2023-02-22T12:17:19.530Z,14.93
2023-02-22T12:19:54.553Z,12.80
2023-02-22T12:22:28.657Z,13.82
2023-02-22T12:25:09.775Z,15.10
2023-02-22T12:27:43.536Z,12.48
2023-02-22T12:30:29.806Z,11.50
2023-02-22T12:33:06.296Z,12.50
2023-02-22T12:35:41.880Z,9.77
2023-02-22T12:41:22.563Z,11.48
2023-02-22T12:44:04.355Z,9.55
2023-02-22T12:46:41.891Z,14.23
2023-02-22T12:49:35.916Z,10.05
2023-02-22T12:52:27.216Z,8.55
2023-02-22T12:55:12.502Z,13.20
2023-02-22T12:58:06.535Z,12.77
2023-02-22T13:00:42.548Z,10.73
2023-02-22T13:03:27.917Z,11.43
2023-02-22T13:06:17.464Z,10.98
2023-02-22T13:09:02.212Z,11.15
2023-02-22T13:11:59.429Z,15.48
2023-02-22T13:14:49.666Z,8.90
2023-02-22T13:18:01.488Z,11.13
2023-02-22T13:20:41.762Z,13.02
2023-02-22T13:23:39.074Z,13.13
2023-02-22T13:26:20.341Z,12.52
2023-02-22T13:28:57.173Z,11.13
2023-02-22T13:31:36.508Z,8.38
2023-02-22T13:34:31.128Z,8.57
2023-02-22T13:37:35.780Z,15.20
2023-02-22T13:40:37.904Z,7.40
2023-02-22T13:43:30.665Z,7.20
2023-02-22T13:46:05.182Z,5.80
2023-02-22T13:48:50.258Z,9.57
2023-02-22T13:51:35.350Z,10.70
2023-02-22T13:54:29.994Z,11.77
2023-02-22T13:56:57.403Z,11.30
2023-02-22T13:59:31.324Z,15.45
2023-02-22T14:02:00.761Z,9.55
2023-02-22T14:04:27.399Z,10.43
2023-02-22T14:07:00.610Z,7.18
2023-02-22T14:09:50.458Z,7.43
2023-02-22T14:12:29.202Z,8.90
2023-02-22T14:15:26.779Z,6.22
2023-02-22T14:18:03.694Z,7.07
2023-02-22T14:20:36.089Z,7.15
2023-02-22T14:23:24.365Z,5.40
2023-02-22T14:25:51.761Z,8.95
2023-02-22T14:28:40.218Z,6.32
2023-02-22T14:31:08.322Z,9.10
2023-02-22T14:33:50.270Z,8.80
2023-02-22T14:36:17.982Z,10.93
2023-02-22T14:38:46.257Z,6.80
2023-02-22T14:41:16.747Z,7.50
2023-02-22T14:43:44.075Z,7.25
2023-02-22T14:46:20.330Z,6.10
2023-02-22T14:48:49.279Z,6.97
2023-02-22T14:51:23.206Z,7.00
2023-02-22T14:54:13.206Z,8.52
2023-02-22T14:56:53.901Z,11.30
2023-02-22T14:59:26.256Z,8.30
2023-02-22T15:02:12.045Z,5.63
2023-02-22T15:04:43.695Z,7.57
2023-02-22T15:07:28.520Z,11.20
2023-02-22T15:10:07.661Z,5.75
2023-02-22T15:12:34.324Z,9.30
2023-02-22T15:15:22.243Z,10.90
2023-02-22T15:17:54.380Z,5.30
2023-02-22T15:20:21.896Z,8.30
2023-02-22T15:22:49.876Z,5.57
2023-02-22T15:25:23.838Z,6.35
2023-02-22T15:27:50.468Z,8.43
2023-02-22T15:30:26.415Z,11.80
2023-02-22T15:33:03.700Z,13.07
2023-02-22T15:35:33.390Z,5.75
2023-02-22T15:38:06.361Z,5.20
2023-02-22T15:40:34.565Z,7.30
2023-02-22T15:43:04.920Z,8.30
2023-02-22T15:45:34.456Z,10.90
2023-02-22T15:48:01.839Z,11.57
2023-02-22T15:50:32.225Z,8.65
2023-02-22T15:53:03.360Z,10.73
2023-02-22T15:55:32.922Z,6.18
2023-02-22T15:58:07.124Z,13.48
2023-02-22T16:00:39.410Z,13.02
2023-02-22T16:03:15.134Z,9.95
2023-02-22T16:05:49.152Z,8.90
2023-02-22T16:08:23.997Z,14.20
2023-02-22T16:10:59.490Z,11.73
2023-02-22T16:16:02.866Z,5.90
2023-02-22T16:18:36.018Z,10.32
2023-02-22T16:21:11.787Z,12.98
2023-02-22T16:23:48.428Z,10.60
2023-02-22T16:26:34.837Z,9.68
2023-02-22T16:29:08.148Z,12.52
2023-02-22T16:31:37.712Z,12.45
2023-02-22T16:34:07.403Z,18.08
2023-02-22T16:36:44.724Z,12.05
2023-02-22T16:43:15.412Z,12.15
2023-02-22T16:45:42.666Z,9.90
2023-02-22T16:48:19.612Z,12.40
2023-02-22T16:50:48.481Z,13.13
2023-02-22T16:53:19.911Z,16.27
2023-02-22T16:55:48.032Z,14.63
2023-02-22T16:58:16.228Z,17.75
2023-02-22T17:00:43.698Z,12.98
2023-02-22T17:03:15.222Z,17.92
2023-02-22T17:05:42.151Z,11.13
2023-02-22T17:08:08.726Z,14.43
2023-02-22T17:10:35.680Z,14.48
2023-02-22T17:13:16.209Z,9.02
2023-02-22T17:15:48.759Z,15.05
2023-02-22T17:22:53.700Z,13.57
2023-02-22T17:25:24.061Z,21.10
2023-02-22T17:27:50.779Z,14.75
2023-02-22T17:30:18.383Z,11.65
2023-02-22T17:32:45.109Z,12.68
2023-02-22T17:35:11.726Z,12.23
2023-02-22T17:37:38.482Z,14.70
2023-02-22T17:40:05.760Z,13.73
2023-02-22T17:42:32.486Z,16.27
2023-02-22T17:44:59.028Z,10.38
2023-02-22T17:47:26.146Z,14.68
2023-02-22T17:49:52.919Z,12.88
2023-02-22T17:52:19.539Z,17.67
2023-02-22T17:54:46.191Z,11.32
2023-02-22T17:57:12.882Z,19.88
2023-02-22T17:59:40.614Z,12.82
2023-02-22T18:02:07.654Z,15.00
2023-02-22T18:04:39.481Z,14.57
2023-02-22T18:07:06.190Z,16.05
2023-02-22T18:09:34.027Z,16.35
2023-02-22T18:12:00.768Z,13.30
2023-02-22T18:14:27.651Z,14.25
2023-02-22T18:16:54.416Z,16.63
2023-02-22T18:19:23.340Z,23.20
2023-02-22T18:21:50.118Z,15.38
2023-02-22T18:24:17.335Z,20.45
2023-02-22T18:26:44.022Z,14.90
2023-02-22T18:29:12.330Z,13.98
2023-02-22T18:31:38.999Z,14.68
2023-02-22T18:34:05.590Z,13.32
2023-02-22T18:36:32.362Z,28.33
2023-02-22T18:38:58.901Z,13.73
2023-02-22T18:41:25.957Z,10.98
2023-02-22T18:43:55.080Z,17.30
2023-02-22T18:46:23.564Z,10.23
2023-02-22T18:48:53.940Z,13.23
2023-02-22T18:51:20.918Z,11.80
2023-02-22T18:53:49.746Z,14.15
2023-02-22T18:56:21.983Z,14.63
2023-02-22T18:58:56.034Z,14.52
2023-02-22T19:01:23.324Z,19.33
2023-02-22T19:03:51.517Z,14.77
2023-02-22T19:06:19.043Z,16.75
2023-02-22T19:08:46.229Z,17.80
2023-02-22T19:11:17.834Z,19.58
2023-02-22T19:13:49.838Z,14.38
2023-02-22T19:16:20.855Z,16.02
2023-02-22T19:18:48.940Z,15.43
2023-02-22T19:21:16.409Z,19.75
2023-02-22T19:23:47.869Z,19.55
2023-02-22T19:26:20.647Z,22.48
2023-02-22T19:28:48.564Z,24.08
2023-02-22T19:31:17.013Z,23.42
2023-02-22T19:33:44.177Z,20.90
2023-02-22T19:36:13.609Z,25.77
2023-02-22T19:38:41.447Z,20.77
2023-02-22T19:41:10.665Z,23.63
2023-02-22T19:43:37.695Z,23.67
2023-02-22T19:46:07.888Z,25.65
2023-02-22T19:48:34.886Z,23.10
2023-02-22T19:51:03.706Z,24.85
2023-02-22T19:53:30.461Z,21.08
2023-02-22T19:55:57.132Z,24.63
2023-02-22T19:58:23.785Z,22.40
2023-02-22T20:00:51.005Z,25.20
2023-02-22T20:03:23.466Z,26.65
2023-02-22T20:05:50.150Z,23.20
2023-02-22T20:08:18.334Z,25.13
2023-02-22T20:10:46.364Z,25.02
2023-02-22T20:13:13.050Z,27.40
2023-02-22T20:15:39.822Z,23.63
2023-02-22T20:18:06.417Z,25.40
2023-02-22T20:20:33.476Z,21.52
2023-02-22T20:23:00.191Z,23.52
2023-02-22T20:25:26.847Z,30.38
2023-02-22T20:27:55.118Z,27.05
2023-02-22T20:30:22.910Z,28.02
2023-02-22T20:32:49.739Z,27.13
2023-02-22T20:35:16.648Z,24.27
2023-02-22T20:37:43.459Z,24.58
2023-02-22T20:40:10.475Z,23.60
2023-02-22T20:42:37.082Z,25.48
2023-02-22T20:45:06.125Z,25.27
2023-02-22T20:47:32.726Z,26.02
2023-02-22T20:49:59.454Z,24.85
2023-02-22T20:52:26.045Z,24.13
2023-02-22T20:54:52.595Z,22.63
2023-02-22T20:57:19.164Z,27.63
2023-02-22T20:59:46.131Z,24.27
2023-02-22T21:02:12.814Z,24.85
2023-02-22T21:04:39.991Z,22.55
2023-02-22T21:07:06.647Z,22.15
2023-02-22T21:09:33.788Z,26.60
2023-02-22T21:12:00.381Z,23.10
2023-02-22T21:14:27.069Z,21.08
2023-02-22T21:16:53.894Z,27.48
2023-02-22T21:19:31.865Z,25.67
2023-02-22T21:22:01.654Z,21.08
2023-02-22T21:24:29.144Z,18.38
2023-02-22T21:26:59.036Z,25.25
2023-02-22T21:29:27.529Z,30.02
2023-02-22T21:31:54.420Z,19.48
2023-02-22T21:34:22.588Z,22.77
2023-02-22T21:36:50.452Z,25.00
2023-02-22T21:39:20.373Z,22.33
2023-02-22T21:41:49.760Z,27.23
2023-02-22T21:44:17.252Z,25.45
2023-02-22T21:46:44.177Z,18.77
2023-02-22T21:49:11.544Z,26.65
2023-02-22T21:51:38.520Z,22.70
2023-02-22T21:54:07.412Z,23.92
2023-02-22T21:56:37.003Z,24.63
2023-02-22T21:59:05.052Z,19.98
2023-02-22T22:01:35.314Z,22.05
2023-02-22T22:04:04.169Z,19.17
2023-02-22T22:06:32.710Z,22.25
2023-02-22T22:09:00.999Z,22.60
2023-02-22T22:11:30.392Z,23.15
2023-02-22T22:13:57.618Z,22.80
2023-02-22T22:16:27.207Z,21.85
2023-02-22T22:18:55.013Z,26.67
2023-02-22T22:21:23.361Z,23.45
2023-02-22T22:23:54.348Z,20.95
2023-02-22T22:26:24.335Z,24.50
2023-02-22T22:28:57.765Z,23.40
2023-02-22T22:31:28.667Z,27.15
2023-02-22T22:33:56.295Z,23.00
2023-02-22T22:36:24.439Z,28.38
2023-02-22T22:38:52.595Z,21.73
2023-02-22T22:41:21.486Z,26.50
2023-02-22T22:43:48.292Z,19.88
2023-02-22T22:46:17.835Z,20.88
2023-02-22T22:48:47.120Z,25.20
2023-02-22T22:51:21.345Z,23.60
2023-02-22T22:53:49.972Z,22.27
2023-02-22T22:56:19.674Z,25.45
2023-02-22T22:58:52.182Z,20.92
2023-02-22T23:01:26.704Z,23.48
2023-02-22T23:04:01.677Z,21.87
2023-02-22T23:06:38.485Z,19.40
2023-02-22T23:09:15.122Z,20.75
2023-02-22T23:11:53.063Z,23.92
2023-02-22T23:14:23.941Z,26.73
2023-02-22T23:16:53.052Z,27.73
2023-02-22T23:19:20.186Z,22.63
2023-02-22T23:21:49.074Z,24.58
2023-02-22T23:24:21.129Z,23.63
2023-02-22T23:26:48.632Z,24.50
2023-02-22T23:29:20.657Z,27.27
2023-02-22T23:31:49.326Z,25.50
2023-02-22T23:34:17.450Z,24.05
2023-02-22T23:36:44.424Z,23.98
2023-02-22T23:39:12.218Z,23.83
2023-02-22T23:41:38.759Z,30.17
2023-02-22T23:44:08.250Z,28.35
2023-02-22T23:46:36.438Z,23.92
2023-02-22T23:49:04.130Z,24.17
2023-02-22T23:51:39.342Z,33.35
2023-02-22T23:56:35.319Z,27.15
2023-02-22T23:59:10.585Z,22.67
